This is the latest recevied weather packets stored in our database for station/object KD4KKF. If no packets are shown the sender has not sent any weather packets the latest 10 day(s).
| Time | Temp. | Humidity | Pressure | Rain* | Wind** | Luminosity | Snow |
|---|---|---|---|---|---|---|---|
| 1777922261 | 25.56° C | 47% | 1013.1 hPa | 0 mm | - | 724 W/m² | - |
| 1777921957 | 26.11° C | 46% | 1013.5 hPa | 0 mm | - | 766 W/m² | - |
| 1777921653 | 26.11° C | 46% | 1013.1 hPa | 0 mm | - | 775 W/m² | - |
| 1777921350 | 25.56° C | 48% | 1013.4 hPa | 0 mm | - | 787 W/m² | - |
| 1777921046 | 25.56° C | 48% | 1013.2 hPa | 0 mm | - | 584 W/m² | - |
| 1777920743 | 25.56° C | 46% | 1013.5 hPa | 0 mm | - | 796 W/m² | - |
| 1777920439 | 25.56° C | 47% | 1013.5 hPa | 0 mm | - | 811 W/m² | - |
| 1777920135 | 25.56° C | 46% | 1013.3 hPa | 0 mm | - | 798 W/m² | - |
| 1777919831 | 26.11° C | 45% | 1013.7 hPa | 0 mm | - | 252 W/m² | - |
| 1777919528 | 26.11° C | 44% | 1013.7 hPa | 0 mm | - | 806 W/m² | - |
| 1777919226 | 25.56° C | 48% | 1013.8 hPa | 0 mm | - | 825 W/m² | - |
| 1777918923 | 25.56° C | 46% | 1014 hPa | 0 mm | - | 765 W/m² | - |
| 1777918621 | 25.56° C | 46% | 1013.9 hPa | 0 mm | - | 884 W/m² | - |
| 1777918318 | 25° C | 48% | 1013.8 hPa | 0 mm | - | 579 W/m² | - |
| 1777918017 | 25.56° C | 49% | 1014.1 hPa | 0 mm | - | 641 W/m² | - |
| 1777917715 | 25.56° C | 48% | 1013.8 hPa | 0 mm | - | 921 W/m² | - |
| 1777917412 | 25.56° C | 49% | 1014 hPa | 0 mm | - | 874 W/m² | - |
| 1777917109 | 24.44° C | 50% | 1014.1 hPa | 0 mm | - | 535 W/m² | - |
| 1777916807 | 23.89° C | 51% | 1014.3 hPa | 0 mm | - | 570 W/m² | - |
| 1777916503 | 23.89° C | 51% | 1014.5 hPa | 0 mm | - | 326 W/m² | - |
| 1777916200 | 23.89° C | 54% | 1014.4 hPa | 0 mm | - | 669 W/m² | - |
| 1777915898 | 25° C | 49% | 1014.4 hPa | 0 mm | - | 639 W/m² | - |
| 1777915594 | 25° C | 50% | 1014.8 hPa | 0 mm | - | 848 W/m² | - |
| 1777915291 | 24.44° C | 56% | 1014.6 hPa | 0 mm | - | 737 W/m² | - |
| 1777914987 | 23.89° C | 52% | 1014.8 hPa | 0 mm | - | 610 W/m² | - |
* Rain latest hour (hover to see other rain measurements)
** Current wind speed in m/s (hover to see current wind gust speed)